Time,TemperatureF,DewpointF,PressureIn,WindDirection,WindDirectionDegrees,WindSpeedMPH,WindSpeedGustMPH,Humidity,HourlyPrecipIn,Conditions,Clouds,dailyrainin,SoftwareType,DateUTC
2013-12-19 00:01:00,33.8,19.4,30.14,South,181,5.0,8.0,55,0.00,,CLR,0.00,VWS V14.01,2013-12-19 05:01:00,
2013-12-19 00:06:00,33.8,19.4,30.14,SSE,158,6.0,7.0,55,0.00,,CLR,0.00,VWS V14.01,2013-12-19 05:06:00,
2013-12-19 00:11:00,33.9,19.5,30.14,SSE,160,2.0,4.0,55,0.00,,CLR,0.00,VWS V14.01,2013-12-19 05:11:00,
2013-12-19 00:16:00,33.8,19.4,30.14,SSW,211,4.0,5.0,55,0.00,,CLR,0.00,VWS V14.01,2013-12-19 05:16:00,
2013-12-19 00:21:00,33.7,19.3,30.14,SSW,203,3.0,5.0,55,0.00,,CLR,0.00,VWS V14.01,2013-12-19 05:21:00,
2013-12-19 00:26:00,33.7,19.3,30.13,SSW,195,3.0,5.0,55,0.00,,CLR,0.00,VWS V14.01,2013-12-19 05:26:00,
2013-12-19 00:31:00,33.7,19.3,30.13,SW,215,2.0,6.0,55,0.00,,CLR,0.00,VWS V14.01,2013-12-19 05:31:00,
2013-12-19 00:36:00,33.7,19.3,30.13,SW,214,4.0,6.0,55,0.00,,CLR,0.00,VWS V14.01,2013-12-19 05:36:00,
2013-12-19 00:41:00,33.8,19.4,30.12,South,176,6.0,6.0,55,0.00,,CLR,0.00,VWS V14.01,2013-12-19 05:41:00,
2013-12-19 00:46:00,33.8,19.8,30.12,SSW,208,2.0,4.0,56,0.00,,CLR,0.00,VWS V14.01,2013-12-19 05:46:00,
2013-12-19 00:51:00,33.8,20.2,30.12,SW,229,2.0,6.0,57,0.00,,CLR,0.00,VWS V14.01,2013-12-19 05:51:00,
2013-12-19 00:56:00,33.8,19.8,30.12,SW,229,1.0,5.0,56,0.00,,CLR,0.00,VWS V14.01,2013-12-19 05:56:00,
2013-12-19 01:01:00,33.7,19.7,30.12,SW,235,4.0,5.0,56,0.00,,CLR,0.00,VWS V14.01,2013-12-19 06:01:00,
2013-12-19 01:06:00,33.5,19.5,30.12,WSW,238,2.0,4.0,56,0.00,,CLR,0.00,VWS V14.01,2013-12-19 06:06:00,
2013-12-19 01:11:00,33.5,19.5,30.12,WSW,247,2.0,3.0,56,0.00,,CLR,0.00,VWS V14.01,2013-12-19 06:11:00,
2013-12-19 01:16:00,33.3,19.7,30.12,SSW,208,3.0,3.0,57,0.00,,CLR,0.00,VWS V14.01,2013-12-19 06:16:00,
2013-12-19 01:21:00,33.2,19.6,30.12,WSW,242,3.0,4.0,57,0.00,,CLR,0.00,VWS V14.01,2013-12-19 06:21:00,
2013-12-19 01:26:00,33.3,21.3,30.11,WSW,245,3.0,4.0,61,0.00,,CLR,0.00,VWS V14.01,2013-12-19 06:26:00,
2013-12-19 01:31:00,33.4,21.4,30.11,SW,232,2.0,4.0,61,0.00,,CLR,0.00,VWS V14.01,2013-12-19 06:31:00,
2013-12-19 01:36:00,33.4,20.2,30.11,West,271,3.0,5.0,58,0.00,,CLR,0.00,VWS V14.01,2013-12-19 06:36:00,
2013-12-19 01:41:00,33.5,19.9,30.11,SW,233,3.0,4.0,57,0.00,,CLR,0.00,VWS V14.01,2013-12-19 06:41:00,
2013-12-19 01:46:00,33.6,20.0,30.11,SW,228,1.0,6.0,57,0.00,,CLR,0.00,VWS V14.01,2013-12-19 06:46:00,
2013-12-19 01:51:00,33.8,20.2,30.11,SW,224,4.0,8.0,57,0.00,,CLR,0.00,VWS V14.01,2013-12-19 06:51:00,
2013-12-19 01:56:00,34.0,20.4,30.11,SW,222,3.0,7.0,57,0.00,,CLR,0.00,VWS V14.01,2013-12-19 06:56:00,
2013-12-19 02:01:00,34.3,20.7,30.11,WSW,238,8.0,9.0,57,0.00,,CLR,0.00,VWS V14.01,2013-12-19 07:01:00,
2013-12-19 02:06:00,34.5,20.9,30.11,WSW,245,5.0,10.0,57,0.00,,CLR,0.00,VWS V14.01,2013-12-19 07:06:00,
2013-12-19 02:11:00,34.7,20.6,30.11,SW,235,3.0,12.0,56,0.00,,CLR,0.00,VWS V14.01,2013-12-19 07:11:00,
2013-12-19 02:16:00,34.8,20.7,30.11,WSW,238,6.0,9.0,56,0.00,,CLR,0.00,VWS V14.01,2013-12-19 07:16:00,
2013-12-19 02:21:00,34.9,20.8,30.11,SSW,204,5.0,8.0,56,0.00,,CLR,0.00,VWS V14.01,2013-12-19 07:21:00,
2013-12-19 02:26:00,35.1,20.6,30.11,SW,226,8.0,12.0,55,0.00,,CLR,0.00,VWS V14.01,2013-12-19 07:26:00,
2013-12-19 02:31:00,35.2,20.7,30.11,WSW,249,9.0,12.0,55,0.00,,CLR,0.00,VWS V14.01,2013-12-19 07:31:00,
2013-12-19 02:36:00,35.3,20.8,30.11,SSW,195,6.0,15.0,55,0.00,,CLR,0.00,VWS V14.01,2013-12-19 07:36:00,
2013-12-19 02:41:00,35.4,21.3,30.11,SW,228,12.0,13.0,56,0.00,,CLR,0.00,VWS V14.01,2013-12-19 07:41:00,
2013-12-19 02:46:00,35.3,20.8,30.11,SSW,204,6.0,12.0,55,0.00,,CLR,0.00,VWS V14.01,2013-12-19 07:46:00,
2013-12-19 02:51:00,35.2,20.7,30.11,SW,236,7.0,14.0,55,0.00,,CLR,0.00,VWS V14.01,2013-12-19 07:51:00,
2013-12-19 02:56:00,35.2,21.1,30.12,SW,229,8.0,10.0,56,0.00,,CLR,0.00,VWS V14.01,2013-12-19 07:56:00,
2013-12-19 03:01:00,35.1,21.0,30.12,WSW,243,4.0,11.0,56,0.00,,CLR,0.00,VWS V14.01,2013-12-19 08:01:00,
2013-12-19 03:06:00,35.0,21.3,30.12,SW,233,5.0,9.0,57,0.00,,CLR,0.00,VWS V14.01,2013-12-19 08:06:00,
2013-12-19 03:11:00,34.9,21.2,30.12,SSE,156,4.0,10.0,57,0.00,,CLR,0.00,VWS V14.01,2013-12-19 08:11:00,
2013-12-19 03:16:00,34.9,22.0,30.12,SW,229,5.0,7.0,59,0.00,,CLR,0.00,VWS V14.01,2013-12-19 08:16:00,
2013-12-19 03:21:00,34.8,21.5,30.12,WSW,249,4.0,7.0,58,0.00,,CLR,0.00,VWS V14.01,2013-12-19 08:21:00,
2013-12-19 03:26:00,34.8,22.0,30.12,WSW,252,2.0,10.0,59,0.00,,CLR,0.00,VWS V14.01,2013-12-19 08:26:00,
2013-12-19 03:31:00,34.7,21.9,30.12,SSW,211,2.0,8.0,59,0.00,,CLR,0.00,VWS V14.01,2013-12-19 08:31:00,
2013-12-19 03:36:00,34.7,21.9,30.13,SW,214,2.0,8.0,59,0.00,,CLR,0.00,VWS V14.01,2013-12-19 08:36:00,
2013-12-19 03:41:00,34.8,22.0,30.12,SW,221,5.0,9.0,59,0.00,,CLR,0.00,VWS V14.01,2013-12-19 08:41:00,
2013-12-19 03:46:00,35.0,22.5,30.13,SSW,211,5.0,10.0,60,0.00,,CLR,0.00,VWS V14.01,2013-12-19 08:46:00,
2013-12-19 03:51:00,35.2,22.7,30.13,SW,229,4.0,10.0,60,0.00,,CLR,0.00,VWS V14.01,2013-12-19 08:51:00,
2013-12-19 03:56:00,35.2,22.3,30.12,SW,228,10.0,10.0,59,0.00,,CLR,0.00,VWS V14.01,2013-12-19 08:56:00,
2013-12-19 04:01:00,35.2,22.3,30.13,SW,218,5.0,9.0,59,0.00,,CLR,0.00,VWS V14.01,2013-12-19 09:01:00,
2013-12-19 04:06:00,35.3,22.4,30.13,West,262,5.0,10.0,59,0.00,,CLR,0.00,VWS V14.01,2013-12-19 09:06:00,
2013-12-19 04:11:00,35.4,22.5,30.12,SW,222,10.0,12.0,59,0.00,,CLR,0.00,VWS V14.01,2013-12-19 09:11:00,
2013-12-19 04:16:00,35.6,22.7,30.12,West,269,4.0,10.0,59,0.00,,CLR,0.00,VWS V14.01,2013-12-19 09:16:00,
2013-12-19 04:21:00,35.5,22.6,30.13,West,276,2.0,3.0,59,0.00,,CLR,0.00,VWS V14.01,2013-12-19 09:21:00,
2013-12-19 04:26:00,35.4,22.9,30.12,SSW,193,3.0,8.0,60,0.00,,CLR,0.00,VWS V14.01,2013-12-19 09:26:00,
2013-12-19 04:31:00,35.4,22.9,30.13,SW,226,8.0,9.0,60,0.00,,CLR,0.00,VWS V14.01,2013-12-19 09:31:00,
2013-12-19 04:36:00,35.3,22.8,30.13,SSW,212,4.0,9.0,60,0.00,,CLR,0.00,VWS V14.01,2013-12-19 09:36:00,
2013-12-19 04:41:00,35.3,22.8,30.13,SW,225,5.0,7.0,60,0.00,,CLR,0.00,VWS V14.01,2013-12-19 09:41:00,
2013-12-19 04:46:00,35.3,22.8,30.13,West,274,7.0,9.0,60,0.00,,CLR,0.00,VWS V14.01,2013-12-19 09:46:00,
2013-12-19 04:51:00,35.4,22.9,30.13,WSW,240,5.0,10.0,60,0.00,,CLR,0.00,VWS V14.01,2013-12-19 09:51:00,
2013-12-19 04:56:00,35.3,22.8,30.13,WSW,250,4.0,8.0,60,0.00,,CLR,0.00,VWS V14.01,2013-12-19 09:56:00,
2013-12-19 05:01:00,35.4,22.9,30.13,WSW,242,6.0,12.0,60,0.00,,CLR,0.00,VWS V14.01,2013-12-19 10:01:00,
2013-12-19 05:06:00,35.5,23.0,30.13,WSW,255,4.0,10.0,60,0.00,,CLR,0.00,VWS V14.01,2013-12-19 10:06:00,
2013-12-19 05:11:00,35.6,23.1,30.13,SW,225,4.0,6.0,60,0.00,,CLR,0.00,VWS V14.01,2013-12-19 10:11:00,
2013-12-19 05:16:00,35.5,23.0,30.13,SW,224,11.0,11.0,60,0.00,,CLR,0.00,VWS V14.01,2013-12-19 10:16:00,
2013-12-19 05:21:00,35.6,23.1,30.13,SW,222,3.0,7.0,60,0.00,,CLR,0.00,VWS V14.01,2013-12-19 10:21:00,
2013-12-19 05:26:00,35.6,23.1,30.13,WSW,245,5.0,10.0,60,0.00,,CLR,0.00,VWS V14.01,2013-12-19 10:26:00,
2013-12-19 05:31:00,35.7,23.2,30.13,WSW,256,2.0,8.0,60,0.00,,CLR,0.00,VWS V14.01,2013-12-19 10:31:00,
2013-12-19 05:36:00,35.7,23.2,30.13,SW,233,8.0,9.0,60,0.00,,CLR,0.00,VWS V14.01,2013-12-19 10:36:00,
2013-12-19 05:41:00,35.7,23.2,30.13,SW,221,5.0,8.0,60,0.00,,CLR,0.00,VWS V14.01,2013-12-19 10:41:00,
2013-12-19 05:46:00,35.8,24.1,30.13,SSW,208,5.0,9.0,62,0.00,,CLR,0.00,VWS V14.01,2013-12-19 10:46:00,
2013-12-19 05:51:00,35.7,23.6,30.12,WSW,256,5.0,8.0,61,0.00,,CLR,0.00,VWS V14.01,2013-12-19 10:51:00,
2013-12-19 05:56:00,35.7,23.6,30.13,SW,224,4.0,10.0,61,0.00,,CLR,0.00,VWS V14.01,2013-12-19 10:56:00,
2013-12-19 06:01:00,35.7,23.6,30.12,WSW,240,6.0,8.0,61,0.00,,CLR,0.00,VWS V14.01,2013-12-19 11:01:00,
2013-12-19 06:06:00,35.9,23.4,30.12,SW,226,6.0,8.0,60,0.00,,CLR,0.00,VWS V14.01,2013-12-19 11:06:00,
2013-12-19 06:11:00,35.8,23.7,30.12,SW,214,3.0,7.0,61,0.00,,CLR,0.00,VWS V14.01,2013-12-19 11:11:00,
2013-12-19 06:16:00,35.8,23.7,30.12,West,260,2.0,8.0,61,0.00,,CLR,0.00,VWS V14.01,2013-12-19 11:16:00,
2013-12-19 06:21:00,35.9,24.2,30.12,South,169,4.0,9.0,62,0.00,,CLR,0.00,VWS V14.01,2013-12-19 11:21:00,
2013-12-19 06:26:00,36.0,23.9,30.12,SW,231,6.0,9.0,61,0.00,,CLR,0.00,VWS V14.01,2013-12-19 11:26:00,
2013-12-19 06:31:00,36.0,23.9,30.13,SSW,204,4.0,6.0,61,0.00,,CLR,0.00,VWS V14.01,2013-12-19 11:31:00,
2013-12-19 06:36:00,36.0,23.9,30.12,SSW,203,3.0,8.0,61,0.00,,CLR,0.00,VWS V14.01,2013-12-19 11:36:00,
2013-12-19 06:41:00,36.0,23.9,30.13,SSW,200,2.0,5.0,61,0.00,,CLR,0.00,VWS V14.01,2013-12-19 11:41:00,
2013-12-19 06:46:00,36.1,24.0,30.13,SW,217,5.0,13.0,61,0.00,,CLR,0.00,VWS V14.01,2013-12-19 11:46:00,
2013-12-19 06:51:00,36.2,24.1,30.13,SW,224,6.0,11.0,61,0.00,,CLR,0.00,VWS V14.01,2013-12-19 11:51:00,
2013-12-19 06:56:00,36.3,24.1,30.13,SSW,206,5.0,8.0,61,0.00,,CLR,0.00,VWS V14.01,2013-12-19 11:56:00,
2013-12-19 07:01:00,36.4,24.2,30.12,SW,224,8.0,9.0,61,0.00,,CLR,0.00,VWS V14.01,2013-12-19 12:01:00,
2013-12-19 07:06:00,36.5,24.3,30.13,SW,228,3.0,8.0,61,0.00,,CLR,0.00,VWS V14.01,2013-12-19 12:06:00,
2013-12-19 07:11:00,36.5,24.7,30.13,South,169,2.0,8.0,62,0.00,,CLR,0.00,VWS V14.01,2013-12-19 12:11:00,
2013-12-19 07:16:00,36.6,24.8,30.13,SW,226,8.0,8.0,62,0.00,,CLR,0.00,VWS V14.01,2013-12-19 12:16:00,
2013-12-19 07:21:00,36.6,24.8,30.13,SSW,210,2.0,10.0,62,0.00,,CLR,0.00,VWS V14.01,2013-12-19 12:21:00,
2013-12-19 07:26:00,36.6,24.4,30.13,SW,224,2.0,8.0,61,0.00,,CLR,0.00,VWS V14.01,2013-12-19 12:26:00,
2013-12-19 07:31:00,36.7,24.5,30.13,SW,221,4.0,7.0,61,0.00,,CLR,0.00,VWS V14.01,2013-12-19 12:31:00,
2013-12-19 07:36:00,36.9,24.7,30.13,SSW,211,4.0,8.0,61,0.00,,CLR,0.00,VWS V14.01,2013-12-19 12:36:00,
2013-12-19 07:40:00,37.1,24.5,30.13,WSW,242,5.0,9.0,60,0.00,,CLR,0.00,VWS V14.01,2013-12-19 12:40:00,
2013-12-19 07:45:00,37.1,24.9,30.13,WSW,238,3.0,8.0,61,0.00,,CLR,0.00,VWS V14.01,2013-12-19 12:45:00,
2013-12-19 07:50:00,37.2,25.0,30.13,SW,235,7.0,8.0,61,0.00,,CLR,0.00,VWS V14.01,2013-12-19 12:50:00,
2013-12-19 07:55:00,37.4,24.8,30.13,WSW,238,4.0,10.0,60,0.00,,CLR,0.00,VWS V14.01,2013-12-19 12:55:00,
2013-12-19 08:01:00,37.5,24.9,30.13,SW,235,7.0,8.0,60,0.00,,CLR,0.00,VWS V14.01,2013-12-19 13:01:00,
2013-12-19 08:06:00,37.5,24.9,30.13,SW,232,5.0,11.0,60,0.00,,CLR,0.00,VWS V14.01,2013-12-19 13:06:00,
2013-12-19 08:11:00,37.8,24.8,30.13,SW,226,7.0,13.0,59,0.00,,CLR,0.00,VWS V14.01,2013-12-19 13:11:00,
2013-12-19 08:15:00,38.0,25.0,30.13,SW,228,5.0,9.0,59,0.00,,CLR,0.00,VWS V14.01,2013-12-19 13:15:00,
2013-12-19 08:20:00,38.2,25.1,30.13,WSW,258,5.0,13.0,59,0.00,,CLR,0.00,VWS V14.01,2013-12-19 13:20:00,
2013-12-19 08:25:00,38.3,25.2,30.14,WSW,252,4.0,11.0,59,0.00,,CLR,0.00,VWS V14.01,2013-12-19 13:25:00,
2013-12-19 08:30:00,38.4,25.3,30.14,SW,225,6.0,10.0,59,0.00,,CLR,0.00,VWS V14.01,2013-12-19 13:30:00,
2013-12-19 08:35:00,38.5,25.4,30.14,WSW,256,5.0,11.0,59,0.00,,CLR,0.00,VWS V14.01,2013-12-19 13:35:00,
2013-12-19 08:40:00,38.6,25.5,30.14,SW,214,1.0,9.0,59,0.00,,CLR,0.00,VWS V14.01,2013-12-19 13:40:00,
2013-12-19 08:45:00,38.7,25.6,30.14,SW,233,5.0,11.0,59,0.00,,CLR,0.00,VWS V14.01,2013-12-19 13:45:00,
2013-12-19 08:50:00,38.8,25.7,30.14,WSW,239,3.0,11.0,59,0.00,,CLR,0.00,VWS V14.01,2013-12-19 13:50:00,
2013-12-19 08:55:00,38.9,25.8,30.14,WSW,237,11.0,14.0,59,0.00,,CLR,0.00,VWS V14.01,2013-12-19 13:55:00,
2013-12-19 09:00:00,39.1,26.0,30.15,SSE,153,3.0,11.0,59,0.00,,CLR,0.00,VWS V14.01,2013-12-19 14:00:00,
2013-12-19 09:05:00,39.3,26.2,30.15,SW,233,9.0,14.0,59,0.00,,CLR,0.00,VWS V14.01,2013-12-19 14:05:00,
2013-12-19 09:10:00,39.5,26.4,30.15,SSW,207,7.0,11.0,59,0.00,,CLR,0.00,VWS V14.01,2013-12-19 14:10:00,
2013-12-19 09:16:00,39.7,26.6,30.15,SSW,210,6.0,10.0,59,0.00,,CLR,0.00,VWS V14.01,2013-12-19 14:16:00,
2013-12-19 09:21:00,39.9,26.8,30.15,SW,231,5.0,12.0,59,0.00,,CLR,0.00,VWS V14.01,2013-12-19 14:21:00,
2013-12-19 09:26:00,40.0,26.8,30.15,South,189,4.0,12.0,59,0.00,,CLR,0.00,VWS V14.01,2013-12-19 14:26:00,
2013-12-19 09:31:00,40.3,27.1,30.15,SSW,208,9.0,13.0,59,0.00,,CLR,0.00,VWS V14.01,2013-12-19 14:31:00,
2013-12-19 09:36:00,40.5,27.3,30.15,WSW,240,8.0,10.0,59,0.00,,CLR,0.00,VWS V14.01,2013-12-19 14:36:00,
2013-12-19 09:41:00,40.8,27.6,30.15,SW,224,5.0,10.0,59,0.00,,CLR,0.00,VWS V14.01,2013-12-19 14:41:00,
2013-12-19 09:46:00,41.1,27.9,30.15,West,263,11.0,11.0,59,0.00,,CLR,0.00,VWS V14.01,2013-12-19 14:46:00,
2013-12-19 09:51:00,41.3,28.1,30.15,WSW,252,6.0,11.0,59,0.00,,CLR,0.00,VWS V14.01,2013-12-19 14:51:00,
2013-12-19 09:56:00,41.5,28.3,30.16,SW,222,9.0,11.0,59,0.00,,CLR,0.00,VWS V14.01,2013-12-19 14:56:00,
2013-12-19 10:01:00,41.6,28.4,30.16,West,271,3.0,10.0,59,0.00,,CLR,0.00,VWS V14.01,2013-12-19 15:01:00,
2013-12-19 10:06:00,41.9,28.6,30.16,West,259,5.0,11.0,59,0.00,,CLR,0.00,VWS V14.01,2013-12-19 15:06:00,
2013-12-19 10:11:00,42.2,28.9,30.16,WSW,246,6.0,11.0,59,0.00,,CLR,0.00,VWS V14.01,2013-12-19 15:11:00,
2013-12-19 10:16:00,42.4,29.1,30.16,SW,221,7.0,10.0,59,0.00,,CLR,0.00,VWS V14.01,2013-12-19 15:16:00,
2013-12-19 10:21:00,42.5,29.2,30.16,SSW,203,6.0,8.0,59,0.00,,CLR,0.00,VWS V14.01,2013-12-19 15:21:00,
2013-12-19 10:26:00,42.8,29.9,30.16,SW,222,4.0,12.0,60,0.00,,CLR,0.00,VWS V14.01,2013-12-19 15:26:00,
2013-12-19 10:31:00,43.1,30.2,30.16,SW,217,4.0,6.0,60,0.00,,CLR,0.00,VWS V14.01,2013-12-19 15:31:00,
2013-12-19 10:36:00,43.4,30.0,30.16,SSW,198,2.0,11.0,59,0.00,,CLR,0.00,VWS V14.01,2013-12-19 15:36:00,
2013-12-19 10:41:00,43.7,30.3,30.17,WSW,242,7.0,9.0,59,0.00,,CLR,0.00,VWS V14.01,2013-12-19 15:41:00,
2013-12-19 10:46:00,44.1,31.1,30.16,SW,222,7.0,11.0,60,0.00,,CLR,0.00,VWS V14.01,2013-12-19 15:46:00,
2013-12-19 10:51:00,44.5,31.5,30.16,WSW,238,6.0,7.0,60,0.00,,CLR,0.00,VWS V14.01,2013-12-19 15:51:00,
2013-12-19 10:56:00,45.0,32.0,30.16,SW,233,2.0,9.0,60,0.00,,CLR,0.00,VWS V14.01,2013-12-19 15:56:00,
2013-12-19 11:01:00,45.4,32.3,30.16,SW,214,2.0,8.0,60,0.00,,CLR,0.00,VWS V14.01,2013-12-19 16:01:00,
2013-12-19 11:06:00,45.7,32.2,30.16,WSW,237,4.0,10.0,59,0.00,,CLR,0.00,VWS V14.01,2013-12-19 16:06:00,
2013-12-19 11:11:00,46.1,32.6,30.17,SW,226,9.0,9.0,59,0.00,,CLR,0.00,VWS V14.01,2013-12-19 16:11:00,
2013-12-19 11:16:00,46.4,32.9,30.16,SW,226,4.0,7.0,59,0.00,,CLR,0.00,VWS V14.01,2013-12-19 16:16:00,
2013-12-19 11:21:00,46.5,33.0,30.17,SW,231,9.0,15.0,59,0.00,,CLR,0.00,VWS V14.01,2013-12-19 16:21:00,
2013-12-19 11:26:00,46.6,33.0,30.16,SSW,200,5.0,16.0,59,0.00,,CLR,0.00,VWS V14.01,2013-12-19 16:26:00,
2013-12-19 11:31:00,46.7,33.2,30.16,WSW,239,5.0,12.0,59,0.00,,CLR,0.00,VWS V14.01,2013-12-19 16:31:00,
2013-12-19 11:36:00,47.0,33.4,30.16,WSW,250,7.0,12.0,59,0.00,,CLR,0.00,VWS V14.01,2013-12-19 16:36:00,
2013-12-19 11:41:00,47.1,33.5,30.16,WSW,243,4.0,12.0,59,0.00,,CLR,0.00,VWS V14.01,2013-12-19 16:41:00,
2013-12-19 11:46:00,47.1,33.9,30.16,WNW,290,1.0,8.0,60,0.00,,CLR,0.00,VWS V14.01,2013-12-19 16:46:00,
2013-12-19 11:51:00,47.3,34.1,30.16,WSW,256,7.0,12.0,60,0.00,,CLR,0.00,VWS V14.01,2013-12-19 16:51:00,
2013-12-19 11:56:00,47.6,34.4,30.15,SW,236,11.0,14.0,60,0.00,,CLR,0.00,VWS V14.01,2013-12-19 16:56:00,
2013-12-19 12:01:00,47.5,33.9,30.15,West,274,6.0,15.0,59,0.00,,CLR,0.00,VWS V14.01,2013-12-19 17:01:00,
2013-12-19 12:06:00,47.6,34.4,30.15,WSW,241,6.0,12.0,60,0.00,,CLR,0.00,VWS V14.01,2013-12-19 17:06:00,
2013-12-19 12:11:00,47.7,34.5,30.15,WSW,257,14.0,17.0,60,0.00,,CLR,0.00,VWS V14.01,2013-12-19 17:11:00,
2013-12-19 12:16:00,47.8,34.2,30.15,SW,228,9.0,13.0,59,0.00,,CLR,0.00,VWS V14.01,2013-12-19 17:16:00,
2013-12-19 12:21:00,48.0,34.4,30.14,SSW,203,8.0,13.0,59,0.00,,CLR,0.00,VWS V14.01,2013-12-19 17:21:00,
2013-12-19 12:26:00,48.0,34.4,30.14,WSW,240,15.0,15.0,59,0.00,,CLR,0.00,VWS V14.01,2013-12-19 17:26:00,
2013-12-19 12:31:00,47.9,34.7,30.14,South,180,5.0,8.0,60,0.00,,CLR,0.00,VWS V14.01,2013-12-19 17:31:00,
2013-12-19 12:36:00,47.8,34.6,30.14,WSW,246,12.0,13.0,60,0.00,,CLR,0.00,VWS V14.01,2013-12-19 17:36:00,
2013-12-19 12:41:00,47.9,35.1,30.13,WSW,250,7.0,7.0,61,0.00,,CLR,0.00,VWS V14.01,2013-12-19 17:41:00,
2013-12-19 12:46:00,47.9,35.1,30.13,WSW,256,7.0,12.0,61,0.00,,CLR,0.00,VWS V14.01,2013-12-19 17:46:00,
2013-12-19 12:51:00,48.0,35.2,30.13,SW,228,6.0,10.0,61,0.00,,CLR,0.00,VWS V14.01,2013-12-19 17:51:00,
2013-12-19 12:56:00,48.2,35.0,30.13,SSW,193,8.0,14.0,60,0.00,,CLR,0.00,VWS V14.01,2013-12-19 17:56:00,
2013-12-19 13:01:00,48.2,35.0,30.13,SW,226,8.0,12.0,60,0.00,,CLR,0.00,VWS V14.01,2013-12-19 18:01:00,
2013-12-19 13:05:00,48.1,35.3,30.12,WSW,249,16.0,16.0,61,0.00,,CLR,0.00,VWS V14.01,2013-12-19 18:05:00,
2013-12-19 13:10:00,47.9,34.7,30.12,SSW,198,5.0,12.0,60,0.00,,CLR,0.00,VWS V14.01,2013-12-19 18:10:00,
2013-12-19 13:15:00,47.7,34.9,30.12,SW,226,5.0,12.0,61,0.00,,CLR,0.00,VWS V14.01,2013-12-19 18:15:00,
2013-12-19 13:20:00,47.7,34.9,30.12,SW,221,7.0,10.0,61,0.00,,CLR,0.00,VWS V14.01,2013-12-19 18:20:00,
2013-12-19 13:25:00,47.7,35.3,30.12,SW,222,3.0,12.0,62,0.00,,CLR,0.00,VWS V14.01,2013-12-19 18:25:00,
2013-12-19 13:30:00,47.9,35.5,30.12,SSW,207,6.0,7.0,62,0.00,,CLR,0.00,VWS V14.01,2013-12-19 18:30:00,
2013-12-19 13:35:00,47.9,35.5,30.12,SW,217,3.0,7.0,62,0.00,,CLR,0.00,VWS V14.01,2013-12-19 18:35:00,
2013-12-19 13:40:00,48.1,36.1,30.12,SW,236,3.0,5.0,63,0.00,,CLR,0.00,VWS V14.01,2013-12-19 18:40:00,
2013-12-19 13:45:00,48.1,35.7,30.12,WSW,242,4.0,8.0,62,0.00,,CLR,0.00,VWS V14.01,2013-12-19 18:45:00,
2013-12-19 13:50:00,48.1,36.1,30.12,WSW,239,4.0,5.0,63,0.00,,CLR,0.00,VWS V14.01,2013-12-19 18:50:00,
2013-12-19 13:55:00,48.1,36.1,30.12,SW,221,3.0,6.0,63,0.00,,CLR,0.00,VWS V14.01,2013-12-19 18:55:00,
2013-12-19 14:00:00,48.2,36.2,30.12,WSW,253,2.0,8.0,63,0.00,,CLR,0.00,VWS V14.01,2013-12-19 19:00:00,
2013-12-19 14:05:00,48.5,36.9,30.11,SSW,211,3.0,6.0,64,0.00,,CLR,0.00,VWS V14.01,2013-12-19 19:05:00,
2013-12-19 14:10:00,48.9,37.3,30.12,SW,235,2.0,4.0,64,0.00,,CLR,0.00,VWS V14.01,2013-12-19 19:10:00,
2013-12-19 14:15:00,49.1,37.5,30.12,SW,221,1.0,3.0,64,0.00,,CLR,0.00,VWS V14.01,2013-12-19 19:15:00,
2013-12-19 14:20:00,49.3,37.2,30.11,WSW,253,5.0,6.0,63,0.00,,CLR,0.00,VWS V14.01,2013-12-19 19:20:00,
2013-12-19 14:25:00,49.7,37.6,30.11,SW,219,6.0,7.0,63,0.00,,CLR,0.00,VWS V14.01,2013-12-19 19:25:00,
2013-12-19 14:29:00,50.1,38.0,30.11,SW,236,5.0,6.0,63,0.00,,CLR,0.00,VWS V14.01,2013-12-19 19:29:00,
2013-12-19 14:34:00,50.3,38.2,30.11,SW,236,4.0,6.0,63,0.00,,CLR,0.00,VWS V14.01,2013-12-19 19:34:00,
2013-12-19 14:39:00,50.5,38.4,30.11,SW,233,6.0,6.0,63,0.00,,CLR,0.00,VWS V14.01,2013-12-19 19:39:00,
2013-12-19 14:44:00,50.4,38.3,30.11,West,274,2.0,4.0,63,0.00,,CLR,0.00,VWS V14.01,2013-12-19 19:44:00,
2013-12-19 14:49:00,50.6,38.5,30.11,SW,224,3.0,5.0,63,0.00,,CLR,0.00,VWS V14.01,2013-12-19 19:49:00,
2013-12-19 14:54:00,50.7,38.6,30.11,WSW,246,7.0,7.0,63,0.00,,CLR,0.00,VWS V14.01,2013-12-19 19:54:00,
2013-12-19 14:59:00,50.6,38.5,30.11,WSW,243,4.0,8.0,63,0.00,,CLR,0.00,VWS V14.01,2013-12-19 19:59:00,
2013-12-19 15:04:00,50.6,38.9,30.11,West,260,3.0,5.0,64,0.00,,CLR,0.00,VWS V14.01,2013-12-19 20:04:00,
2013-12-19 15:09:00,50.5,38.8,30.11,West,267,2.0,4.0,64,0.00,,CLR,0.00,VWS V14.01,2013-12-19 20:09:00,
2013-12-19 15:14:00,50.5,39.2,30.11,WSW,251,2.0,6.0,65,0.00,,CLR,0.00,VWS V14.01,2013-12-19 20:14:00,
2013-12-19 15:19:00,50.6,39.3,30.11,SW,233,2.0,3.0,65,0.00,,CLR,0.00,VWS V14.01,2013-12-19 20:19:00,
2013-12-19 15:24:00,50.7,39.4,30.11,SW,217,2.0,4.0,65,0.00,,CLR,0.00,VWS V14.01,2013-12-19 20:24:00,
2013-12-19 15:29:00,50.8,39.5,30.11,WSW,238,2.0,3.0,65,0.00,,CLR,0.00,VWS V14.01,2013-12-19 20:29:00,
2013-12-19 15:34:00,50.9,39.6,30.11,WSW,246,1.0,4.0,65,0.00,,CLR,0.00,VWS V14.01,2013-12-19 20:34:00,
2013-12-19 15:39:00,50.9,40.3,30.11,WSW,239,2.0,2.0,67,0.00,,CLR,0.00,VWS V14.01,2013-12-19 20:39:00,
2013-12-19 15:44:00,51.0,40.8,30.11,SW,235,4.0,4.0,68,0.00,,CLR,0.00,VWS V14.01,2013-12-19 20:44:00,
2013-12-19 15:49:00,51.0,40.4,30.11,SW,236,0.0,2.0,67,0.00,,CLR,0.00,VWS V14.01,2013-12-19 20:49:00,
2013-12-19 15:54:00,51.1,40.9,30.11,SW,232,1.0,2.0,68,0.00,,CLR,0.00,VWS V14.01,2013-12-19 20:54:00,
2013-12-19 15:59:00,51.3,40.7,30.11,SW,232,2.0,3.0,67,0.00,,CLR,0.00,VWS V14.01,2013-12-19 20:59:00,
2013-12-19 16:04:00,51.3,40.7,30.11,SSW,210,1.0,3.0,67,0.00,,CLR,0.00,VWS V14.01,2013-12-19 21:04:00,
2013-12-19 16:09:00,51.4,41.6,30.10,SW,214,0.0,1.0,69,0.00,,CLR,0.00,VWS V14.01,2013-12-19 21:09:00,
2013-12-19 16:14:00,51.4,40.4,30.10,SSW,203,1.0,1.0,66,0.00,,CLR,0.00,VWS V14.01,2013-12-19 21:14:00,
2013-12-19 16:19:00,51.0,40.1,30.10,SSW,197,1.0,2.0,66,0.00,,CLR,0.00,VWS V14.01,2013-12-19 21:19:00,
2013-12-19 16:24:00,50.7,39.8,30.10,SW,235,2.0,3.0,66,0.00,,CLR,0.00,VWS V14.01,2013-12-19 21:24:00,
2013-12-19 16:29:00,50.6,40.4,30.10,SW,231,2.0,3.0,68,0.00,,CLR,0.00,VWS V14.01,2013-12-19 21:29:00,
2013-12-19 16:34:00,50.5,40.0,30.10,SSW,205,0.0,2.0,67,0.00,,CLR,0.00,VWS V14.01,2013-12-19 21:34:00,
2013-12-19 16:39:00,50.4,40.2,30.09,SSW,200,0.0,1.0,68,0.00,,CLR,0.00,VWS V14.01,2013-12-19 21:39:00,
2013-12-19 16:44:00,50.3,39.8,30.09,SSW,198,2.0,3.0,67,0.00,,CLR,0.00,VWS V14.01,2013-12-19 21:44:00,
2013-12-19 16:49:00,50.3,39.4,30.09,SW,228,3.0,5.0,66,0.00,,CLR,0.00,VWS V14.01,2013-12-19 21:49:00,
2013-12-19 16:54:00,50.3,39.4,30.09,SW,217,3.0,4.0,66,0.00,,CLR,0.00,VWS V14.01,2013-12-19 21:54:00,
2013-12-19 16:59:00,50.1,39.2,30.09,WSW,237,4.0,4.0,66,0.00,,CLR,0.00,VWS V14.01,2013-12-19 21:59:00,
2013-12-19 17:04:00,50.0,39.5,30.09,SW,224,3.0,3.0,67,0.00,,CLR,0.00,VWS V14.01,2013-12-19 22:04:00,
2013-12-19 17:09:00,50.0,40.2,30.09,SW,224,0.0,2.0,69,0.00,,CLR,0.00,VWS V14.01,2013-12-19 22:09:00,
2013-12-19 17:14:00,49.9,39.4,30.09,SW,221,1.0,2.0,67,0.00,,CLR,0.00,VWS V14.01,2013-12-19 22:14:00,
2013-12-19 17:19:00,49.6,39.1,30.09,WSW,240,2.0,2.0,67,0.00,,CLR,0.00,VWS V14.01,2013-12-19 22:19:00,
2013-12-19 17:24:00,49.4,38.9,30.09,SSW,195,1.0,2.0,67,0.00,,CLR,0.00,VWS V14.01,2013-12-19 22:24:00,
2013-12-19 17:29:00,49.1,38.6,30.09,SSW,204,1.0,2.0,67,0.00,,CLR,0.00,VWS V14.01,2013-12-19 22:29:00,
2013-12-19 17:34:00,49.0,38.5,30.09,SSW,204,0.0,1.0,67,0.00,,CLR,0.00,VWS V14.01,2013-12-19 22:34:00,
2013-12-19 17:39:00,48.9,38.8,30.09,SSW,204,1.0,2.0,68,0.00,,CLR,0.00,VWS V14.01,2013-12-19 22:39:00,
2013-12-19 17:44:00,49.0,38.5,30.09,SW,217,3.0,4.0,67,0.00,,CLR,0.00,VWS V14.01,2013-12-19 22:44:00,
2013-12-19 17:49:00,49.0,38.2,30.09,SW,224,2.0,4.0,66,0.00,,CLR,0.00,VWS V14.01,2013-12-19 22:49:00,
2013-12-19 17:54:00,48.8,38.0,30.09,SSW,203,1.0,2.0,66,0.00,,CLR,0.00,VWS V14.01,2013-12-19 22:54:00,
2013-12-19 17:59:00,48.7,37.9,30.08,SSW,192,1.0,2.0,66,0.00,,CLR,0.00,VWS V14.01,2013-12-19 22:59:00,
2013-12-19 18:04:00,48.6,37.8,30.09,SSW,198,2.0,3.0,66,0.00,,CLR,0.00,VWS V14.01,2013-12-19 23:04:00,
2013-12-19 18:09:00,48.4,37.6,30.09,SSW,195,2.0,2.0,66,0.00,,CLR,0.00,VWS V14.01,2013-12-19 23:09:00,
2013-12-19 18:14:00,48.4,37.6,30.09,SW,217,1.0,2.0,66,0.00,,CLR,0.00,VWS V14.01,2013-12-19 23:14:00,
2013-12-19 18:19:00,48.3,37.5,30.09,SSW,211,2.0,2.0,66,0.00,,CLR,0.00,VWS V14.01,2013-12-19 23:19:00,
2013-12-19 18:24:00,48.3,37.1,30.08,SSW,198,0.0,3.0,65,0.00,,CLR,0.00,VWS V14.01,2013-12-19 23:24:00,
2013-12-19 18:29:00,48.3,37.1,30.08,South,176,3.0,3.0,65,0.00,,CLR,0.00,VWS V14.01,2013-12-19 23:29:00,
2013-12-19 18:34:00,48.2,37.0,30.08,SSW,207,2.0,4.0,65,0.00,,CLR,0.00,VWS V14.01,2013-12-19 23:34:00,
2013-12-19 18:39:00,48.3,36.7,30.09,SSW,209,3.0,4.0,64,0.00,,CLR,0.00,VWS V14.01,2013-12-19 23:39:00,
2013-12-19 18:44:00,48.3,36.7,30.09,SW,214,3.0,5.0,64,0.00,,CLR,0.00,VWS V14.01,2013-12-19 23:44:00,
2013-12-19 18:49:00,48.5,37.3,30.09,SSW,207,2.0,6.0,65,0.00,,CLR,0.00,VWS V14.01,2013-12-19 23:49:00,
2013-12-19 18:54:00,48.6,37.0,30.09,SSW,210,5.0,7.0,64,0.00,,CLR,0.00,VWS V14.01,2013-12-19 23:54:00,
2013-12-19 18:59:00,48.5,36.9,30.08,WSW,242,2.0,4.0,64,0.00,,CLR,0.00,VWS V14.01,2013-12-19 23:59:00,
2013-12-19 19:04:00,48.6,37.0,30.08,SW,233,5.0,8.0,64,0.00,,CLR,0.00,VWS V14.01,2013-12-20 00:04:00,
2013-12-19 19:09:00,48.5,36.9,30.08,WSW,243,3.0,4.0,64,0.00,,CLR,0.00,VWS V14.01,2013-12-20 00:09:00,
2013-12-19 19:14:00,48.7,36.7,30.08,South,172,4.0,7.0,63,0.00,,CLR,0.00,VWS V14.01,2013-12-20 00:14:00,
2013-12-19 19:19:00,48.9,36.9,30.08,SSW,207,1.0,5.0,63,0.00,,CLR,0.00,VWS V14.01,2013-12-20 00:19:00,
2013-12-19 19:24:00,48.8,36.8,30.08,SSE,155,3.0,5.0,63,0.00,,CLR,0.00,VWS V14.01,2013-12-20 00:24:00,
2013-12-19 19:29:00,48.8,36.8,30.08,SW,221,4.0,5.0,63,0.00,,CLR,0.00,VWS V14.01,2013-12-20 00:29:00,
2013-12-19 19:34:00,48.9,36.9,30.08,SSW,210,3.0,5.0,63,0.00,,CLR,0.00,VWS V14.01,2013-12-20 00:34:00,
2013-12-19 19:39:00,49.0,36.6,30.09,SSW,212,5.0,8.0,62,0.00,,CLR,0.00,VWS V14.01,2013-12-20 00:39:00,
2013-12-19 19:44:00,49.0,36.6,30.09,SW,228,8.0,8.0,62,0.00,,CLR,0.00,VWS V14.01,2013-12-20 00:44:00,
2013-12-19 19:49:00,49.0,36.2,30.09,SSE,165,3.0,5.0,61,0.00,,CLR,0.00,VWS V14.01,2013-12-20 00:49:00,
2013-12-19 19:54:00,49.1,36.2,30.09,SW,231,7.0,7.0,61,0.00,,CLR,0.00,VWS V14.01,2013-12-20 00:54:00,
2013-12-19 19:59:00,49.1,35.8,30.08,SSW,198,3.0,6.0,60,0.00,,CLR,0.00,VWS V14.01,2013-12-20 00:59:00,
2013-12-19 20:04:00,49.2,35.9,30.08,SSW,206,5.0,7.0,60,0.00,,CLR,0.00,VWS V14.01,2013-12-20 01:04:00,
2013-12-19 20:09:00,49.3,36.0,30.08,SW,214,4.0,6.0,60,0.00,,CLR,0.00,VWS V14.01,2013-12-20 01:09:00,
2013-12-19 20:14:00,49.4,35.3,30.08,SSW,204,6.0,10.0,58,0.00,,CLR,0.00,VWS V14.01,2013-12-20 01:14:00,
2013-12-19 20:19:00,49.7,35.1,30.08,SSW,211,7.0,8.0,57,0.00,,CLR,0.00,VWS V14.01,2013-12-20 01:19:00,
2013-12-19 20:24:00,49.8,34.8,30.07,SSW,198,4.0,6.0,56,0.00,,CLR,0.00,VWS V14.01,2013-12-20 01:24:00,
2013-12-19 20:29:00,50.0,34.5,30.07,WSW,258,9.0,10.0,55,0.00,,CLR,0.00,VWS V14.01,2013-12-20 01:29:00,
2013-12-19 20:34:00,50.2,34.2,30.07,SW,236,6.0,9.0,54,0.00,,CLR,0.00,VWS V14.01,2013-12-20 01:34:00,
2013-12-19 20:39:00,50.5,34.0,30.08,WSW,243,7.0,12.0,53,0.00,,CLR,0.00,VWS V14.01,2013-12-20 01:39:00,
2013-12-19 20:44:00,50.6,34.1,30.08,SSE,149,5.0,10.0,53,0.00,,CLR,0.00,VWS V14.01,2013-12-20 01:44:00,
2013-12-19 20:49:00,50.6,34.1,30.08,SSW,198,5.0,11.0,53,0.00,,CLR,0.00,VWS V14.01,2013-12-20 01:49:00,
2013-12-19 20:54:00,50.5,34.0,30.08,West,260,7.0,8.0,53,0.00,,CLR,0.00,VWS V14.01,2013-12-20 01:54:00,
2013-12-19 20:59:00,50.3,33.8,30.08,SW,235,7.0,12.0,53,0.00,,CLR,0.00,VWS V14.01,2013-12-20 01:59:00,
2013-12-19 21:04:00,50.1,33.7,30.08,SW,214,7.0,8.0,53,0.00,,CLR,0.00,VWS V14.01,2013-12-20 02:04:00,
2013-12-19 21:09:00,50.1,33.7,30.07,SSW,194,5.0,9.0,53,0.00,,CLR,0.00,VWS V14.01,2013-12-20 02:09:00,
2013-12-19 21:14:00,49.9,33.5,30.07,WSW,246,6.0,8.0,53,0.00,,CLR,0.00,VWS V14.01,2013-12-20 02:14:00,
2013-12-19 21:19:00,49.9,33.5,30.07,WSW,253,5.0,9.0,53,0.00,,CLR,0.00,VWS V14.01,2013-12-20 02:19:00,
2013-12-19 21:24:00,50.0,33.6,30.07,WSW,242,6.0,9.0,53,0.00,,CLR,0.00,VWS V14.01,2013-12-20 02:24:00,
2013-12-19 21:29:00,50.0,33.6,30.07,SW,226,7.0,10.0,53,0.00,,CLR,0.00,VWS V14.01,2013-12-20 02:29:00,
2013-12-19 21:34:00,50.1,33.7,30.07,SW,222,6.0,10.0,53,0.00,,CLR,0.00,VWS V14.01,2013-12-20 02:34:00,
2013-12-19 21:39:00,50.3,33.8,30.07,SSW,207,4.0,9.0,53,0.00,,CLR,0.00,VWS V14.01,2013-12-20 02:39:00,
2013-12-19 21:44:00,50.3,33.4,30.07,South,172,7.0,10.0,52,0.00,,CLR,0.00,VWS V14.01,2013-12-20 02:44:00,
2013-12-19 21:49:00,50.3,33.4,30.07,SW,229,6.0,8.0,52,0.00,,CLR,0.00,VWS V14.01,2013-12-20 02:49:00,
2013-12-19 21:54:00,50.3,33.4,30.07,SW,225,6.0,12.0,52,0.00,,CLR,0.00,VWS V14.01,2013-12-20 02:54:00,
2013-12-19 21:59:00,50.3,33.4,30.07,South,180,4.0,8.0,52,0.00,,CLR,0.00,VWS V14.01,2013-12-20 02:59:00,
2013-12-19 22:04:00,50.3,33.4,30.06,SSW,204,4.0,9.0,52,0.00,,BKN045,0.00,VWS V14.01,2013-12-20 03:04:00,
2013-12-19 22:09:00,50.2,33.3,30.06,SSW,212,7.0,8.0,52,0.00,,BKN045,0.00,VWS V14.01,2013-12-20 03:09:00,
2013-12-19 22:14:00,50.2,33.7,30.06,SW,226,4.0,5.0,53,0.00,,BKN045,0.00,VWS V14.01,2013-12-20 03:14:00,
2013-12-19 22:19:00,50.1,33.7,30.06,SSW,212,6.0,7.0,53,0.00,,BKN045,0.00,VWS V14.01,2013-12-20 03:19:00,
2013-12-19 22:24:00,50.1,33.7,30.06,SSW,193,2.0,5.0,53,0.00,,BKN045,0.00,VWS V14.01,2013-12-20 03:24:00,
2013-12-19 22:29:00,50.1,33.7,30.06,West,263,2.0,5.0,53,0.00,,BKN045,0.00,VWS V14.01,2013-12-20 03:29:00,
2013-12-19 22:34:00,50.0,33.6,30.06,SSW,205,2.0,5.0,53,0.00,,OVC042,0.00,VWS V14.01,2013-12-20 03:34:00,
2013-12-19 22:39:00,49.9,33.5,30.06,SSW,203,3.0,4.0,53,0.00,,OVC042,0.00,VWS V14.01,2013-12-20 03:39:00,
2013-12-19 22:44:00,49.9,33.5,30.05,SW,222,4.0,6.0,53,0.00,,OVC042,0.00,VWS V14.01,2013-12-20 03:44:00,
2013-12-19 22:49:00,49.9,33.5,30.05,SSW,192,2.0,5.0,53,0.00,,OVC050,0.00,VWS V14.01,2013-12-20 03:49:00,
2013-12-19 22:54:00,49.9,33.5,30.05,SSW,210,3.0,5.0,53,0.00,,OVC050,0.00,VWS V14.01,2013-12-20 03:54:00,
2013-12-19 22:59:00,49.9,33.5,30.05,SSW,198,2.0,5.0,53,0.00,,OVC050,0.00,VWS V14.01,2013-12-20 03:59:00,
2013-12-19 23:04:00,49.9,33.5,30.05,SSW,210,1.0,5.0,53,0.00,,OVC050,0.00,VWS V14.01,2013-12-20 04:04:00,
2013-12-19 23:09:00,49.8,32.9,30.05,WSW,242,3.0,6.0,52,0.00,,OVC050,0.00,VWS V14.01,2013-12-20 04:09:00,
2013-12-19 23:14:00,49.7,32.8,30.05,SW,232,3.0,4.0,52,0.00,,OVC050,0.00,VWS V14.01,2013-12-20 04:14:00,
2013-12-19 23:19:00,49.7,32.8,30.05,SW,217,2.0,4.0,52,0.00,,OVC050,0.00,VWS V14.01,2013-12-20 04:19:00,
2013-12-19 23:24:00,49.6,32.7,30.04,SSW,211,3.0,6.0,52,0.00,,OVC050,0.00,VWS V14.01,2013-12-20 04:24:00,
2013-12-19 23:29:00,49.7,32.3,30.04,SSW,193,2.0,8.0,51,0.00,,OVC050,0.00,VWS V14.01,2013-12-20 04:29:00,
2013-12-19 23:34:00,49.8,32.4,30.04,SSW,207,3.0,5.0,51,0.00,,OVC050,0.00,VWS V14.01,2013-12-20 04:34:00,
2013-12-19 23:39:00,50.0,32.6,30.03,South,186,3.0,6.0,51,0.00,,OVC050,0.00,VWS V14.01,2013-12-20 04:39:00,
2013-12-19 23:44:00,50.1,32.2,30.03,SSW,199,6.0,8.0,50,0.00,,OVC050,0.00,VWS V14.01,2013-12-20 04:44:00,
2013-12-19 23:49:00,50.4,32.5,30.03,SSW,198,4.0,8.0,50,0.00,,OVC050,0.00,VWS V14.01,2013-12-20 04:49:00,
2013-12-19 23:54:00,50.3,32.4,30.03,SSW,207,3.0,5.0,50,0.00,,OVC050,0.00,VWS V14.01,2013-12-20 04:54:00,
2013-12-19 23:59:00,50.4,32.5,30.03,SSW,198,3.0,4.0,50,0.00,,OVC050,0.00,VWS V14.01,2013-12-20 04:59:00,